Main page
METAR-TAF:

METAR-TAF

Airports :

Songkhla, Thailand

latitude: 07-12N, longitude: 100-36E, elevation: 4 m

Current weather observation

The report was made 10 hours and 35 minutes ago, at 09:00 UTC
Wind 8 kt from the North/Northeast
Temperature 30°C
Humidity 70%
Pressure 1008 hPa
Visibility 10 km or more
Few clouds at a height of 2000 ft

METAR: VTSH 280900Z 03008KT 9999 FEW020 30/24 Q1008 NOSIG

Time: 02:35 (19:35 UTC)

Forecast

The report was made 2 hours and 35 minutes ago, at 17:00 UTC
Forecast valid from 28 at 18 UTC to 29 at 18 UTC
Wind 6 kt from the East
Visibility 10 km or more
Few clouds at a height of 2000 ft

TAF: VTSH 281700Z 2818/2918 09006KT 9999 FEW020

Weather observations and forecasts of more than 4000 airports (METAR and TAF reports).

The available stations are represented by yellow and red dots on the map.

Hover mouse over dot to see the name of the station.

Then click to see weather observations and forecasts.

To change the map : click on the green buttons with a black cross to zoom in, on the green button with a dash to zoom out, or on the green arrows for adjacent maps.


METAR-TAF: